Time;durP1;ratioP1;P1;durP2;ratioP2;P2;SDS_P1;SDS_P2;PMS_P1;PMS_P2;Temp;Humidity;BMP_temperature;BMP_pressure;BME280_temperature;BME280_humidity;BME280_pressure;Samples;Min_cycle;Max_cycle;Signal;HPM_P1;HPM_P2
2022/06/30 00:00:12;;;;;;;;;;;614.90;2432.00;;;;;;5069828;28;19927;-57
2022/06/30 00:02:37;;;;;;;;;;;614.90;2432.00;;;;;;5069705;28;19912;-58
2022/06/30 00:05:03;;;;;;;;;;;614.70;2432.00;;;;;;5070054;28;19904;-57
2022/06/30 00:07:29;;;;;;;;;;;614.60;2432.00;;;;;;5069950;28;19915;-57
2022/06/30 00:09:54;;;;;;;;;;;614.60;2432.00;;;;;;5069953;28;20301;-56
2022/06/30 00:12:20;;;;;;;;;;;614.50;2432.00;;;;;;5069740;28;19927;-57
2022/06/30 00:14:45;;;;;;;;;;;614.60;2432.00;;;;;;5071137;28;20122;-58
2022/06/30 00:17:11;;;;;;;;;;;614.70;2432.00;;;;;;5073421;28;19911;-57
2022/06/30 00:19:37;;;;;;;;;;;614.70;2432.00;;;;;;5073159;28;19911;-57
2022/06/30 00:22:05;;;;;;;;;;;614.60;2432.00;;;;;;5073352;28;19934;-58
2022/06/30 00:24:31;;;;;;;;;;;614.60;2432.00;;;;;;5073090;28;19904;-57
2022/06/30 00:26:56;;;;;;;;;;;614.40;2432.00;;;;;;5072741;28;20358;-57
2022/06/30 00:29:22;;;;;;;;;;;589.50;2432.00;;;;;;5073198;28;19920;-57
2022/06/30 00:31:47;;;;;;;;;;;589.20;2432.00;;;;;;5072950;28;20377;-57
2022/06/30 00:34:13;;;;;;;;;;;588.90;2432.00;;;;;;5073157;28;19915;-57
2022/06/30 00:36:38;;;;;;;;;;;588.80;2432.00;;;;;;5072953;28;19908;-57
2022/06/30 00:39:04;;;;;;;;;;;564.10;2432.00;;;;;;5073141;28;19908;-57
2022/06/30 00:41:29;;;;;;;;;;;564.10;2432.00;;;;;;5072980;28;19912;-57
2022/06/30 00:43:55;;;;;;;;;;;588.80;2432.00;;;;;;5073117;28;19904;-57
2022/06/30 00:46:21;;;;;;;;;;;588.80;2432.00;;;;;;5072859;28;19905;-58
2022/06/30 00:48:46;;;;;;;;;;;588.90;2432.00;;;;;;5072742;28;19912;-59
2022/06/30 00:51:12;;;;;;;;;;;589.10;2432.00;;;;;;5073160;28;20263;-57
2022/06/30 00:53:38;;;;;;;;;;;589.20;2432.00;;;;;;5072538;28;19911;-57
2022/06/30 00:56:04;;;;;;;;;;;589.10;2432.00;;;;;;5072975;28;19928;-57
2022/06/30 00:58:31;;;;;;;;;;;589.00;2432.00;;;;;;5072189;28;20344;-57
2022/06/30 01:00:57;;;;;;;;;;;589.10;2432.00;;;;;;5072289;28;19916;-58
2022/06/30 01:03:23;;;;;;;;;;;589.10;2432.00;;;;;;5072554;28;19905;-57
2022/06/30 01:05:49;;;;;;;;;;;589.40;2432.00;;;;;;5072606;28;19905;-57
2022/06/30 01:08:16;;;;;;;;;;;589.60;2432.00;;;;;;5072677;28;20282;-65
2022/06/30 01:13:27;;;;;;;;;;;589.10;2432.00;;;;;;5072797;28;19916;-57
2022/06/30 01:15:52;;;;;;;;;;;588.80;2432.00;;;;;;5072133;28;19911;-57
2022/06/30 01:18:18;;;;;;;;;;;588.80;2432.00;;;;;;5072115;28;19905;-57
2022/06/30 01:20:44;;;;;;;;;;;564.10;2432.00;;;;;;5072412;28;19971;-57
2022/06/30 01:23:09;;;;;;;;;;;589.00;2432.00;;;;;;5071871;28;20331;-57
2022/06/30 01:25:35;;;;;;;;;;;588.80;2432.00;;;;;;5071917;28;19958;-58
2022/06/30 01:28:01;;;;;;;;;;;564.10;2432.00;;;;;;5071848;28;19912;-58
2022/06/30 01:30:26;;;;;;;;;;;564.00;2432.00;;;;;;5071746;28;19908;-58
2022/06/30 01:32:52;;;;;;;;;;;563.90;2432.00;;;;;;5071892;28;19954;-56
2022/06/30 01:35:18;;;;;;;;;;;563.90;2432.00;;;;;;5071727;28;19936;-57
2022/06/30 01:37:57;;;;;;;;;;;564.10;2432.00;;;;;;5071967;28;19904;-57
2022/06/30 01:40:23;;;;;;;;;;;564.00;2432.00;;;;;;5071913;28;19916;-63
2022/06/30 01:42:49;;;;;;;;;;;563.90;2432.00;;;;;;5071682;28;20255;-57
2022/06/30 01:45:15;;;;;;;;;;;563.90;2432.00;;;;;;5071805;28;19904;-58
2022/06/30 01:47:41;;;;;;;;;;;564.00;2432.00;;;;;;5071472;28;20370;-57
2022/06/30 01:50:11;;;;;;;;;;;564.10;2432.00;;;;;;5071641;28;20250;-57
2022/06/30 01:52:36;;;;;;;;;;;564.10;2432.00;;;;;;5071728;28;19947;-57
2022/06/30 01:55:02;;;;;;;;;;;564.10;2432.00;;;;;;5071626;28;19940;-57
2022/06/30 01:57:27;;;;;;;;;;;564.10;2432.00;;;;;;5071315;28;20024;-57
2022/06/30 01:59:53;;;;;;;;;;;564.10;2432.00;;;;;;5071412;28;20003;-57
2022/06/30 02:02:19;;;;;;;;;;;588.80;2432.00;;;;;;5071162;28;19944;-57
2022/06/30 02:04:47;;;;;;;;;;;564.10;2432.00;;;;;;5071329;28;19905;-57
2022/06/30 02:07:13;;;;;;;;;;;564.10;2432.00;;;;;;5071426;28;19977;-57
2022/06/30 02:09:39;;;;;;;;;;;564.10;2432.00;;;;;;5071095;28;20310;-58
2022/06/30 02:14:49;;;;;;;;;;;564.10;2432.00;;;;;;5071318;28;19977;-58
2022/06/30 02:17:15;;;;;;;;;;;563.80;2432.00;;;;;;5070991;28;20350;-57
2022/06/30 02:19:40;;;;;;;;;;;563.60;2432.00;;;;;;5070920;28;19910;-57
2022/06/30 02:22:06;;;;;;;;;;;563.50;2432.00;;;;;;5070834;28;19912;-58
2022/06/30 02:24:31;;;;;;;;;;;563.50;2432.00;;;;;;5071111;28;19912;-57
2022/06/30 02:26:57;;;;;;;;;;;563.60;2432.00;;;;;;5070669;28;20377;-58
2022/06/30 02:29:23;;;;;;;;;;;563.80;2432.00;;;;;;5070885;28;20435;-57
2022/06/30 02:31:48;;;;;;;;;;;564.10;2432.00;;;;;;5070842;28;20371;-57
2022/06/30 02:34:14;;;;;;;;;;;564.10;2432.00;;;;;;5070742;28;19908;-57
2022/06/30 02:36:39;;;;;;;;;;;588.80;2432.00;;;;;;5070175;28;19911;-57
2022/06/30 02:39:05;;;;;;;;;;;564.10;2432.00;;;;;;5070768;28;19904;-57
2022/06/30 02:41:30;;;;;;;;;;;564.00;2432.00;;;;;;5070675;28;20385;-57
2022/06/30 02:43:58;;;;;;;;;;;588.80;2432.00;;;;;;5070547;28;20343;-58
2022/06/30 02:46:24;;;;;;;;;;;588.80;2432.00;;;;;;5070702;28;19908;-58
2022/06/30 02:48:49;;;;;;;;;;;588.90;2432.00;;;;;;5070630;28;20330;-57
2022/06/30 02:51:15;;;;;;;;;;;588.80;2432.00;;;;;;5070666;28;20365;-57
2022/06/30 02:53:40;;;;;;;;;;;588.80;2432.00;;;;;;5070337;28;19911;-57
2022/06/30 02:56:06;;;;;;;;;;;588.80;2432.00;;;;;;5070386;28;19947;-58
2022/06/30 02:58:31;;;;;;;;;;;588.80;2432.00;;;;;;5070429;28;20013;-57
2022/06/30 03:00:57;;;;;;;;;;;564.10;2432.00;;;;;;5070293;28;19931;-57
2022/06/30 03:03:23;;;;;;;;;;;564.10;2432.00;;;;;;5070830;28;19904;-57
2022/06/30 03:05:48;;;;;;;;;;;564.00;2432.00;;;;;;5070526;28;19909;-63
2022/06/30 03:08:14;;;;;;;;;;;564.10;2432.00;;;;;;5070488;28;20014;-64
2022/06/30 03:10:40;;;;;;;;;;;564.10;2432.00;;;;;;5070195;28;19904;-57
2022/06/30 03:13:05;;;;;;;;;;;564.10;2432.00;;;;;;5070436;28;19930;-58
2022/06/30 03:15:31;;;;;;;;;;;588.80;2432.00;;;;;;5070554;28;19904;-57
2022/06/30 03:17:56;;;;;;;;;;;588.80;2432.00;;;;;;5070137;28;19987;-58
2022/06/30 03:20:22;;;;;;;;;;;588.80;2432.00;;;;;;5070488;28;19944;-57
2022/06/30 03:22:48;;;;;;;;;;;588.80;2432.00;;;;;;5070318;28;20313;-57
2022/06/30 03:25:13;;;;;;;;;;;589.00;2432.00;;;;;;5070258;28;19950;-65
2022/06/30 03:27:39;;;;;;;;;;;589.00;2432.00;;;;;;5070025;28;20348;-57
2022/06/30 03:30:05;;;;;;;;;;;589.00;2432.00;;;;;;5070191;28;20405;-58
2022/06/30 03:32:30;;;;;;;;;;;589.00;2432.00;;;;;;5070142;28;19912;-58
2022/06/30 03:34:56;;;;;;;;;;;589.10;2432.00;;;;;;5069899;28;19943;-57
2022/06/30 03:37:21;;;;;;;;;;;589.20;2432.00;;;;;;5070146;28;19909;-57
2022/06/30 03:39:47;;;;;;;;;;;589.30;2432.00;;;;;;5070082;28;19911;-57
2022/06/30 03:42:13;;;;;;;;;;;589.20;2432.00;;;;;;5070275;28;20366;-57
2022/06/30 03:44:39;;;;;;;;;;;589.20;2432.00;;;;;;5069858;28;19909;-57
2022/06/30 03:47:05;;;;;;;;;;;589.50;2432.00;;;;;;5070146;28;19959;-58
2022/06/30 03:49:30;;;;;;;;;;;589.40;2432.00;;;;;;5072561;28;19958;-58
2022/06/30 03:51:56;;;;;;;;;;;589.50;2432.00;;;;;;5073926;28;19905;-58
2022/06/30 03:54:22;;;;;;;;;;;589.60;2432.00;;;;;;5073718;28;20385;-57
2022/06/30 03:56:48;;;;;;;;;;;589.70;2432.00;;;;;;5073724;28;19905;-58
2022/06/30 03:59:14;;;;;;;;;;;589.60;2432.00;;;;;;5073638;28;20278;-57
2022/06/30 04:01:40;;;;;;;;;;;589.60;2432.00;;;;;;5073546;28;19922;-58
2022/06/30 04:04:05;;;;;;;;;;;614.40;2432.00;;;;;;5073644;28;19998;-64
2022/06/30 04:06:31;;;;;;;;;;;614.50;2432.00;;;;;;5073961;28;19905;-57
2022/06/30 04:08:57;;;;;;;;;;;614.80;2432.00;;;;;;5073671;28;19905;-58
2022/06/30 04:11:22;;;;;;;;;;;614.80;2432.00;;;;;;5073578;28;19916;-57
2022/06/30 04:13:48;;;;;;;;;;;614.80;2432.00;;;;;;5073303;28;20270;-57
2022/06/30 04:16:14;;;;;;;;;;;615.00;2432.00;;;;;;5073488;28;20343;-57
2022/06/30 04:18:39;;;;;;;;;;;615.20;2432.00;;;;;;5073160;28;20289;-57
2022/06/30 04:21:05;;;;;;;;;;;640.10;2432.00;;;;;;5073145;28;19962;-58
2022/06/30 04:23:30;;;;;;;;;;;640.10;2432.00;;;;;;5073245;28;19905;-57
2022/06/30 04:25:56;;;;;;;;;;;640.60;2432.00;;;;;;5073031;28;20248;-58
2022/06/30 04:28:21;;;;;;;;;;;640.90;2432.00;;;;;;5073002;28;19912;-57
2022/06/30 04:33:31;;;;;;;;;;;665.90;2432.00;;;;;;5073529;28;19912;-57
2022/06/30 04:35:57;;;;;;;;;;;666.40;2432.00;;;;;;5072986;28;20278;-57
2022/06/30 04:38:22;;;;;;;;;;;717.30;2380.80;;;;;;5073066;28;19912;-57
2022/06/30 04:43:32;;;;;;;;;;;768.70;1945.60;;;;;;5073219;28;19911;-57
2022/06/30 04:45:58;;;;;;;;;;;794.20;1868.80;;;;;;5072921;28;20258;-57
2022/06/30 04:48:23;;;;;;;;;;;844.90;1740.80;;;;;;5072966;28;19957;-57
2022/06/30 04:50:49;;;;;;;;;;;870.70;1638.40;;;;;;5072692;28;19908;-58
2022/06/30 04:53:14;;;;;;;;;;;896.20;1510.40;;;;;;5072900;28;19904;-63
2022/06/30 04:55:40;;;;;;;;;;;922.00;1459.20;;;;;;5072570;28;19904;-57
2022/06/30 04:58:06;;;;;;;;;;;947.20;1382.40;;;;;;5072673;28;19908;-59
2022/06/30 05:00:31;;;;;;;;;;;947.70;1356.80;;;;;;5071774;28;19927;-57
2022/06/30 05:02:57;;;;;;;;;;;948.00;1356.80;;;;;;5072328;28;19957;-59
2022/06/30 05:05:22;;;;;;;;;;;922.50;1382.40;;;;;;5072396;28;19919;-57
2022/06/30 05:07:48;;;;;;;;;;;947.20;1382.40;;;;;;5072347;28;20266;-58
2022/06/30 05:10:13;;;;;;;;;;;947.60;1382.40;;;;;;5072523;28;19948;-57
2022/06/30 05:12:39;;;;;;;;;;;947.30;1408.00;;;;;;5072345;28;19978;-57
2022/06/30 05:15:05;;;;;;;;;;;922.30;1433.60;;;;;;5072429;28;20372;-66
2022/06/30 05:17:32;;;;;;;;;;;973.00;1356.80;;;;;;5072368;28;19904;-57
2022/06/30 05:19:58;;;;;;;;;;;973.70;1305.60;;;;;;5072037;28;19905;-58
2022/06/30 05:22:23;;;;;;;;;;;998.90;1280.00;;;;;;5072225;28;19912;-58
2022/06/30 05:27:34;;;;;;;;;;;1024.70;1228.80;;;;;;5071840;28;19958;-58
2022/06/30 05:30:00;;;;;;;;;;;1024.60;1228.80;;;;;;5071836;28;20354;-58
2022/06/30 05:32:25;;;;;;;;;;;1024.60;1228.80;;;;;;5072217;28;19911;-57
2022/06/30 05:34:51;;;;;;;;;;;1024.10;1228.80;;;;;;5071765;28;19911;-57
2022/06/30 05:37:17;;;;;;;;;;;1024.10;1228.80;;;;;;5071656;28;19904;-57
2022/06/30 05:39:42;;;;;;;;;;;1024.30;1228.80;;;;;;5072023;28;19985;-57
2022/06/30 05:42:08;;;;;;;;;;;1024.70;1228.80;;;;;;5071523;28;19966;-58
2022/06/30 05:44:33;;;;;;;;;;;1050.00;1228.80;;;;;;5072089;28;19908;-57
2022/06/30 05:46:59;;;;;;;;;;;1075.20;1203.20;;;;;;5071650;28;19962;-57
2022/06/30 05:49:25;;;;;;;;;;;1100.80;1152.00;;;;;;5071734;28;20372;-57
2022/06/30 05:51:51;;;;;;;;;;;1101.60;1100.80;;;;;;5071378;28;19987;-57
2022/06/30 05:54:17;;;;;;;;;;;1126.50;1152.00;;;;;;5071539;28;20334;-57
2022/06/30 05:56:42;;;;;;;;;;;1127.30;1075.20;;;;;;5071700;28;19931;-57
2022/06/30 05:59:08;;;;;;;;;;;1127.10;1126.40;;;;;;5071112;28;19916;-58
2022/06/30 06:01:33;;;;;;;;;;;1152.20;1075.20;;;;;;5071357;28;20007;-58
2022/06/30 06:04:00;;;;;;;;;;;1152.20;1075.20;;;;;;5071448;28;19920;-57
2022/06/30 06:06:26;;;;;;;;;;;1152.40;1075.20;;;;;;5071561;28;19905;-57
2022/06/30 06:08:51;;;;;;;;;;;1177.60;1024.00;;;;;;5071231;28;19971;-58
2022/06/30 06:11:17;;;;;;;;;;;1177.60;1049.60;;;;;;5071227;28;19904;-57
2022/06/30 06:13:43;;;;;;;;;;;;;;;;;;5071346;28;19904;-57
2022/06/30 06:16:09;;;;;;;;;;;;;;;;;;5070985;28;19948;-57
2022/06/30 06:18:34;;;;;;;;;;;1177.60;1049.60;;;;;;5071146;28;19999;-57
2022/06/30 06:21:00;;;;;;;;;;;1178.50;1024.00;;;;;;5070803;28;20326;-57
2022/06/30 06:23:26;;;;;;;;;;;1178.30;998.40;;;;;;5070816;28;19957;-57
2022/06/30 06:25:51;;;;;;;;;;;1178.00;1024.00;;;;;;5070966;28;19914;-59
2022/06/30 06:31:02;;;;;;;;;;;1177.60;1024.00;;;;;;5071334;28;19934;-57
2022/06/30 06:33:27;;;;;;;;;;;1178.00;1024.00;;;;;;5070819;28;19912;-65
2022/06/30 06:35:53;;;;;;;;;;;1152.70;1024.00;;;;;;5070800;28;20278;-64
2022/06/30 06:38:18;;;;;;;;;;;1203.60;972.80;;;;;;5070432;28;20290;-64
2022/06/30 06:40:44;;;;;;;;;;;1203.30;998.40;;;;;;5070533;28;19967;-57
2022/06/30 06:43:10;;;;;;;;;;;1203.30;998.40;;;;;;5070461;28;19915;-57
2022/06/30 06:45:36;;;;;;;;;;;1177.60;1024.00;;;;;;5070798;28;19915;-58
2022/06/30 06:48:01;;;;;;;;;;;1203.30;972.80;;;;;;5070748;28;20400;-57
2022/06/30 06:50:27;;;;;;;;;;;1177.80;1024.00;;;;;;5070847;28;19958;-58
2022/06/30 06:52:52;;;;;;;;;;;1203.30;972.80;;;;;;5070627;28;19908;-57
2022/06/30 06:55:20;;;;;;;;;;;1203.20;998.40;;;;;;5070461;28;20365;-63
2022/06/30 06:57:45;;;;;;;;;;;1203.20;1024.00;;;;;;5070492;28;20409;-63
2022/06/30 07:00:14;;;;;;;;;;;1203.20;998.40;;;;;;5070215;28;19920;-58
2022/06/30 07:02:42;;;;;;;;;;;1178.30;972.80;;;;;;5070369;28;19912;-59
2022/06/30 07:05:08;;;;;;;;;;;1178.00;998.40;;;;;;5070361;28;19908;-59
2022/06/30 07:07:34;;;;;;;;;;;1127.30;1049.60;;;;;;5070643;28;20003;-59
2022/06/30 07:09:59;;;;;;;;;;;1152.10;1024.00;;;;;;5070523;28;19934;-59
2022/06/30 07:12:25;;;;;;;;;;;1178.10;947.20;;;;;;5070529;28;19911;-59
2022/06/30 07:14:51;;;;;;;;;;;1203.60;947.20;;;;;;5070195;28;20196;-59
2022/06/30 07:17:16;;;;;;;;;;;1204.10;972.80;;;;;;5070377;28;19905;-59
2022/06/30 07:19:42;;;;;;;;;;;1229.20;972.80;;;;;;5070552;28;19912;-59
2022/06/30 07:22:08;;;;;;;;;;;1178.30;972.80;;;;;;5070305;28;19931;-59
2022/06/30 07:24:34;;;;;;;;;;;1203.90;947.20;;;;;;5073351;28;20313;-59
2022/06/30 07:27:00;;;;;;;;;;;1229.30;921.60;;;;;;5074277;28;19904;-59
2022/06/30 07:29:26;;;;;;;;;;;1228.80;947.20;;;;;;5074287;28;19909;-59
2022/06/30 07:31:53;;;;;;;;;;;1229.00;947.20;;;;;;5074372;28;19939;-58
2022/06/30 07:34:18;;;;;;;;;;;1203.90;921.60;;;;;;5073833;28;19952;-59
2022/06/30 07:36:44;;;;;;;;;;;1228.90;921.60;;;;;;5074403;28;19950;-58
2022/06/30 07:39:09;;;;;;;;;;;1203.70;947.20;;;;;;5073782;28;19904;-59
2022/06/30 07:41:35;;;;;;;;;;;1203.30;947.20;;;;;;5074203;28;19917;-58
2022/06/30 07:44:01;;;;;;;;;;;1178.30;921.60;;;;;;5073671;28;19905;-59
2022/06/30 07:46:27;;;;;;;;;;;1178.00;947.20;;;;;;5073740;28;19911;-59
2022/06/30 07:48:52;;;;;;;;;;;1177.70;972.80;;;;;;5073397;28;19912;-58
2022/06/30 07:51:20;;;;;;;;;;;1178.10;921.60;;;;;;5073600;28;19904;-59
2022/06/30 07:53:45;;;;;;;;;;;1203.40;947.20;;;;;;5074097;28;19904;-61
2022/06/30 07:56:11;;;;;;;;;;;1203.60;947.20;;;;;;5073819;28;19904;-60
2022/06/30 07:58:37;;;;;;;;;;;1203.70;947.20;;;;;;5073367;28;19909;-59
2022/06/30 08:01:02;;;;;;;;;;;1178.30;947.20;;;;;;5073577;28;20436;-58
2022/06/30 08:03:28;;;;;;;;;;;1152.90;998.40;;;;;;5073155;28;19904;-59
2022/06/30 08:05:54;;;;;;;;;;;1152.10;998.40;;;;;;5073140;28;19905;-59
2022/06/30 08:08:19;;;;;;;;;;;1152.50;972.80;;;;;;5073319;28;19909;-59
2022/06/30 08:10:45;;;;;;;;;;;1152.00;998.40;;;;;;5072904;28;20355;-61
2022/06/30 08:13:10;;;;;;;;;;;1152.10;998.40;;;;;;5072701;28;20262;-59
2022/06/30 08:15:36;;;;;;;;;;;;;;;;;;5072822;28;20271;-58
2022/06/30 08:18:03;;;;;;;;;;;1126.90;1024.00;;;;;;5072447;28;19995;-58
2022/06/30 08:20:29;;;;;;;;;;;1024.50;1152.00;;;;;;5073253;28;19908;-59
2022/06/30 08:22:54;;;;;;;;;;;973.60;1203.20;;;;;;5073520;28;20010;-61
2022/06/30 08:25:20;;;;;;;;;;;973.00;1254.40;;;;;;5073141;28;20382;-59
2022/06/30 08:27:45;;;;;;;;;;;947.50;1280.00;;;;;;5073129;28;20378;-59
2022/06/30 08:30:11;;;;;;;;;;;922.40;1331.20;;;;;;5073046;28;19908;-59
2022/06/30 08:32:37;;;;;;;;;;;921.90;1331.20;;;;;;5073030;28;19911;-59
2022/06/30 08:35:02;;;;;;;;;;;922.40;1331.20;;;;;;5071860;28;20355;-59
2022/06/30 08:37:28;;;;;;;;;;;922.30;1305.60;;;;;;5073062;28;19904;-59
2022/06/30 08:42:40;;;;;;;;;;;922.50;1305.60;;;;;;5072937;28;20308;-58
2022/06/30 08:45:17;;;;;;;;;;;922.00;1331.20;;;;;;5072931;28;19904;-61
2022/06/30 08:47:44;;;;;;;;;;;896.50;1331.20;;;;;;5072811;28;19948;-58
2022/06/30 08:50:10;;;;;;;;;;;896.80;1305.60;;;;;;5072739;28;20381;-58
2022/06/30 08:52:45;;;;;;;;;;;896.60;1305.60;;;;;;5073091;28;19912;-58
2022/06/30 08:55:12;;;;;;;;;;;921.80;1331.20;;;;;;5072669;28;19908;-58
2022/06/30 08:57:38;;;;;;;;;;;896.60;1356.80;;;;;;5072567;28;19909;-61
2022/06/30 09:00:04;;;;;;;;;;;896.90;1356.80;;;;;;5072613;28;19920;-58
2022/06/30 09:02:30;;;;;;;;;;;896.70;1382.40;;;;;;5072607;28;19931;-58
2022/06/30 09:04:55;;;;;;;;;;;896.00;1408.00;;;;;;5072602;28;19926;-58
2022/06/30 09:07:21;;;;;;;;;;;896.60;1382.40;;;;;;5072409;28;19911;-58
2022/06/30 09:09:46;;;;;;;;;;;896.60;1356.80;;;;;;5072493;28;19905;-58
2022/06/30 09:12:16;;;;;;;;;;;896.70;1356.80;;;;;;5072383;28;20265;-59
2022/06/30 09:14:47;;;;;;;;;;;896.80;1356.80;;;;;;5072145;28;19904;-59
2022/06/30 09:17:15;;;;;;;;;;;896.50;1356.80;;;;;;5072373;28;19915;-58
2022/06/30 09:20:10;;;;;;;;;;;896.70;1382.40;;;;;;5072124;28;19987;-58
2022/06/30 09:22:36;;;;;;;;;;;921.70;1433.60;;;;;;4971418;28;19913;-59
2022/06/30 09:25:06;;;;;;;;;;;921.60;1433.60;;;;;;4971384;28;20300;-58
2022/06/30 09:27:33;;;;;;;;;;;921.70;1408.00;;;;;;4971106;28;19983;-58
2022/06/30 09:30:00;;;;;;;;;;;896.90;1356.80;;;;;;4971165;28;19917;-59
2022/06/30 09:32:26;;;;;;;;;;;896.90;1382.40;;;;;;4971354;28;19913;-58
2022/06/30 09:34:52;;;;;;;;;;;896.20;1408.00;;;;;;4971160;28;19992;-58
2022/06/30 09:37:22;;;;;;;;;;;896.20;1408.00;;;;;;4973222;28;20338;-58
2022/06/30 09:39:48;;;;;;;;;;;896.20;1382.40;;;;;;4970800;28;19910;-59
2022/06/30 09:42:14;;;;;;;;;;;896.80;1382.40;;;;;;4970803;28;20357;-59
2022/06/30 09:44:39;;;;;;;;;;;921.60;1408.00;;;;;;4970819;28;19965;-58
2022/06/30 09:47:07;;;;;;;;;;;896.70;1382.40;;;;;;4969805;28;19906;-60
2022/06/30 09:49:40;;;;;;;;;;;871.10;1433.60;;;;;;4968960;28;19910;-59
2022/06/30 09:52:20;;;;;;;;;;;896.10;1408.00;;;;;;4969028;28;19906;-59
2022/06/30 09:54:55;;;;;;;;;;;871.10;1433.60;;;;;;4968850;28;19910;-58
2022/06/30 09:57:22;;;;;;;;;;;871.10;1433.60;;;;;;4968662;28;19914;-58
2022/06/30 09:59:57;;;;;;;;;;;871.30;1433.60;;;;;;5052967;28;19966;-60
2022/06/30 10:02:26;;;;;;;;;;;871.30;1433.60;;;;;;5069374;28;19948;-59
2022/06/30 10:04:53;;;;;;;;;;;896.00;1408.00;;;;;;5069840;28;20358;-58
2022/06/30 10:07:19;;;;;;;;;;;896.20;1408.00;;;;;;5069501;28;19905;-60
2022/06/30 10:09:45;;;;;;;;;;;896.00;1433.60;;;;;;5069916;28;20327;-58
2022/06/30 10:12:11;;;;;;;;;;;896.10;1433.60;;;;;;5069471;28;19904;-59
2022/06/30 10:14:37;;;;;;;;;;;896.40;1433.60;;;;;;5069590;28;20022;-58
2022/06/30 10:17:05;;;;;;;;;;;896.40;1408.00;;;;;;5069571;28;20302;-58
2022/06/30 10:19:31;;;;;;;;;;;896.10;1433.60;;;;;;5069253;28;20397;-59
2022/06/30 10:21:57;;;;;;;;;;;871.20;1433.60;;;;;;5069290;28;19960;-58
2022/06/30 10:24:23;;;;;;;;;;;896.10;1408.00;;;;;;5069563;28;19995;-59
2022/06/30 10:29:33;;;;;;;;;;;896.20;1408.00;;;;;;5069698;28;20011;-58
2022/06/30 10:32:01;;;;;;;;;;;896.20;1433.60;;;;;;5069047;28;19944;-59
2022/06/30 10:34:35;;;;;;;;;;;896.40;1408.00;;;;;;5069159;28;19991;-59
2022/06/30 10:37:13;;;;;;;;;;;896.10;1433.60;;;;;;5070339;28;19904;-59
2022/06/30 10:39:58;;;;;;;;;;;871.10;1433.60;;;;;;5070945;28;19912;-60
2022/06/30 10:42:42;;;;;;;;;;;871.30;1433.60;;;;;;5070665;28;19912;-61
2022/06/30 10:45:37;;;;;;;;;;;871.20;1459.20;;;;;;5070655;28;19904;-59
2022/06/30 10:48:03;;;;;;;;;;;896.10;1433.60;;;;;;4969897;28;19909;-59
2022/06/30 10:50:39;;;;;;;;;;;896.00;1484.80;;;;;;4969961;28;19906;-59
2022/06/30 10:53:05;;;;;;;;;;;871.30;1459.20;;;;;;4969807;28;19906;-61
2022/06/30 10:55:49;;;;;;;;;;;870.90;1459.20;;;;;;4969877;28;20391;-59
2022/06/30 10:58:15;;;;;;;;;;;870.90;1484.80;;;;;;4969099;28;19918;-61
2022/06/30 11:00:41;;;;;;;;;;;870.70;1484.80;;;;;;4969646;28;19926;-59
2022/06/30 11:03:07;;;;;;;;;;;870.60;1510.40;;;;;;4969885;28;19910;-59
2022/06/30 11:05:32;;;;;;;;;;;870.70;1510.40;;;;;;4969809;28;19961;-60
2022/06/30 11:08:18;;;;;;;;;;;870.80;1510.40;;;;;;4969690;28;19906;-59
2022/06/30 11:10:43;;;;;;;;;;;870.70;1459.20;;;;;;4969672;28;19956;-59
2022/06/30 11:13:09;;;;;;;;;;;870.80;1484.80;;;;;;4969466;28;19957;-59
2022/06/30 11:16:00;;;;;;;;;;;870.90;1484.80;;;;;;4969790;28;19910;-59
2022/06/30 11:18:26;;;;;;;;;;;870.70;1459.20;;;;;;4967634;28;19910;-58
2022/06/30 11:20:52;;;;;;;;;;;870.90;1433.60;;;;;;4975284;28;19928;-59
2022/06/30 11:23:18;;;;;;;;;;;870.70;1459.20;;;;;;4988817;28;19906;-59
2022/06/30 11:28:30;;;;;;;;;;;870.80;1484.80;;;;;;5050365;28;20007;-58
2022/06/30 11:30:55;;;;;;;;;;;870.90;1484.80;;;;;;5050127;28;19915;-58
2022/06/30 11:33:21;;;;;;;;;;;870.80;1459.20;;;;;;5049975;28;19905;-58
2022/06/30 11:35:59;;;;;;;;;;;870.70;1459.20;;;;;;5050088;28;19904;-59
2022/06/30 11:38:27;;;;;;;;;;;871.00;1484.80;;;;;;5050039;28;19905;-58
2022/06/30 11:41:54;;;;;;;;;;;871.10;1459.20;;;;;;5049834;28;19912;-59
2022/06/30 11:43:39;;;;;;;;;;;871.00;1433.60;;;;;;5049745;28;19908;-59
2022/06/30 11:46:05;;;;;;;;;;;871.20;1433.60;;;;;;5050313;28;19927;-59
2022/06/30 11:48:31;;;;;;;;;;;871.10;1433.60;;;;;;5050376;28;19905;-59
2022/06/30 11:50:56;;;;;;;;;;;871.20;1459.20;;;;;;5050221;28;19909;-61
2022/06/30 11:53:22;;;;;;;;;;;871.20;1433.60;;;;;;5049878;28;19931;-58
2022/06/30 11:55:52;;;;;;;;;;;871.10;1433.60;;;;;;5049765;28;19904;-59
2022/06/30 11:58:25;;;;;;;;;;;871.30;1433.60;;;;;;5049505;28;19962;-61
2022/06/30 12:00:51;;;;;;;;;;;871.30;1433.60;;;;;;5049587;28;19968;-59
2022/06/30 12:03:16;;;;;;;;;;;896.00;1433.60;;;;;;5050240;28;19944;-58
2022/06/30 12:05:42;;;;;;;;;;;871.10;1459.20;;;;;;5049691;28;19905;-59
2022/06/30 12:08:10;;;;;;;;;;;871.10;1459.20;;;;;;5049921;28;19904;-59
2022/06/30 12:10:37;;;;;;;;;;;871.10;1433.60;;;;;;5052692;28;19994;-58
2022/06/30 12:13:03;;;;;;;;;;;871.10;1459.20;;;;;;5052003;28;19908;-56
2022/06/30 12:15:29;;;;;;;;;;;871.10;1433.60;;;;;;5051617;28;19911;-59
2022/06/30 12:17:56;;;;;;;;;;;870.90;1433.60;;;;;;5051842;28;19962;-58
2022/06/30 12:20:22;;;;;;;;;;;871.10;1459.20;;;;;;5051802;28;19931;-59
2022/06/30 12:22:49;;;;;;;;;;;871.10;1459.20;;;;;;5051762;28;19916;-59
2022/06/30 12:25:15;;;;;;;;;;;871.00;1459.20;;;;;;5051838;28;19930;-59
2022/06/30 12:27:41;;;;;;;;;;;870.90;1459.20;;;;;;5050926;28;20247;-59
2022/06/30 12:30:11;;;;;;;;;;;871.10;1433.60;;;;;;5051642;28;19908;-60
2022/06/30 12:32:36;;;;;;;;;;;871.10;1433.60;;;;;;5051692;28;20246;-59
2022/06/30 12:35:07;;;;;;;;;;;870.90;1433.60;;;;;;5051362;28;20047;-59
2022/06/30 12:37:34;;;;;;;;;;;870.90;1433.60;;;;;;5051787;28;19931;-61
2022/06/30 12:40:00;;;;;;;;;;;871.00;1459.20;;;;;;5050965;28;20368;-59
2022/06/30 12:42:26;;;;;;;;;;;871.10;1459.20;;;;;;5051250;28;20008;-59
2022/06/30 12:44:52;;;;;;;;;;;871.20;1459.20;;;;;;5051182;28;20014;-59
2022/06/30 12:47:18;;;;;;;;;;;871.30;1433.60;;;;;;5051200;28;19916;-60
2022/06/30 12:49:44;;;;;;;;;;;896.00;1459.20;;;;;;5051390;28;19931;-59
2022/06/30 12:52:19;;;;;;;;;;;871.30;1433.60;;;;;;5050754;28;19913;-58
2022/06/30 12:54:55;;;;;;;;;;;871.20;1408.00;;;;;;5051271;28;20271;-58
2022/06/30 12:57:21;;;;;;;;;;;871.30;1433.60;;;;;;5050745;28;19908;-58
2022/06/30 12:59:50;;;;;;;;;;;871.10;1433.60;;;;;;5050714;28;20371;-61
2022/06/30 13:02:16;;;;;;;;;;;871.10;1408.00;;;;;;5051021;28;19913;-58
2022/06/30 13:04:52;;;;;;;;;;;871.10;1433.60;;;;;;5033229;28;19915;-58
2022/06/30 13:07:21;;;;;;;;;;;871.10;1408.00;;;;;;5050820;28;19909;-59
2022/06/30 13:09:48;;;;;;;;;;;871.10;1459.20;;;;;;5051006;28;19904;-60
2022/06/30 13:12:15;;;;;;;;;;;871.20;1408.00;;;;;;5050862;28;20019;-58
2022/06/30 13:14:41;;;;;;;;;;;870.90;1433.60;;;;;;5050609;28;19905;-58
2022/06/30 13:17:07;;;;;;;;;;;871.10;1433.60;;;;;;5050859;28;19955;-59
2022/06/30 13:19:34;;;;;;;;;;;871.20;1433.60;;;;;;5050324;28;19904;-57
2022/06/30 13:22:00;;;;;;;;;;;871.10;1408.00;;;;;;5049723;28;19928;-59
2022/06/30 13:24:25;;;;;;;;;;;871.10;1433.60;;;;;;5050746;28;19915;-58
2022/06/30 13:26:51;;;;;;;;;;;870.90;1433.60;;;;;;5050389;28;19974;-59
2022/06/30 13:29:17;;;;;;;;;;;870.90;1433.60;;;;;;5050411;28;19912;-58
2022/06/30 13:31:43;;;;;;;;;;;870.90;1459.20;;;;;;5050249;28;19909;-59
2022/06/30 13:34:11;;;;;;;;;;;870.80;1433.60;;;;;;5050179;28;19966;-58
2022/06/30 13:36:37;;;;;;;;;;;870.70;1459.20;;;;;;5050546;28;20010;-59
2022/06/30 13:39:04;;;;;;;;;;;870.80;1459.20;;;;;;5049378;28;19905;-59
2022/06/30 13:41:30;;;;;;;;;;;870.90;1433.60;;;;;;5050056;28;19947;-59
2022/06/30 13:43:56;;;;;;;;;;;871.10;1433.60;;;;;;5050045;28;19909;-59
2022/06/30 13:46:22;;;;;;;;;;;871.10;1433.60;;;;;;5049663;28;19911;-59
2022/06/30 13:48:47;;;;;;;;;;;870.90;1433.60;;;;;;5049961;28;19935;-59
2022/06/30 13:51:13;;;;;;;;;;;870.90;1408.00;;;;;;5050096;28;19954;-59
2022/06/30 13:53:39;;;;;;;;;;;870.90;1433.60;;;;;;5049930;28;19950;-59
2022/06/30 13:56:04;;;;;;;;;;;870.90;1433.60;;;;;;5049993;28;19905;-59
2022/06/30 13:58:30;;;;;;;;;;;870.90;1382.40;;;;;;5048981;28;19909;-58
2022/06/30 14:00:56;;;;;;;;;;;870.90;1408.00;;;;;;5050066;28;20367;-61
2022/06/30 14:03:22;;;;;;;;;;;870.90;1382.40;;;;;;5049743;28;19904;-59